createdAt,value
2023-04-01T00:00:36.447Z,0.00
2023-04-01T00:01:35.689Z,0.00
2023-04-01T00:02:35.803Z,0.00
2023-04-01T00:03:35.743Z,0.00
2023-04-01T00:04:35.641Z,0.00
2023-04-01T00:05:35.644Z,0.00
2023-04-01T00:06:35.579Z,0.00
2023-04-01T00:07:35.591Z,0.00
2023-04-01T00:08:35.621Z,0.00
2023-04-01T00:09:35.643Z,0.00
2023-04-01T00:10:35.532Z,0.00
2023-04-01T00:11:35.624Z,0.00
2023-04-01T00:12:35.561Z,0.00
2023-04-01T00:13:35.522Z,0.00
2023-04-01T00:14:35.521Z,0.00
2023-04-01T00:15:35.526Z,0.00
2023-04-01T00:16:35.558Z,0.00
2023-04-01T00:17:35.508Z,0.00
2023-04-01T00:18:35.493Z,0.00
2023-04-01T00:19:35.502Z,0.00
2023-04-01T00:20:35.450Z,0.00
2023-04-01T00:21:35.458Z,0.00
2023-04-01T00:22:35.437Z,0.00
2023-04-01T00:23:35.509Z,0.00
2023-04-01T00:24:35.423Z,0.00
2023-04-01T00:25:35.664Z,0.00
2023-04-01T00:26:35.456Z,0.00
2023-04-01T00:27:35.423Z,0.00
2023-04-01T00:28:35.399Z,0.00
2023-04-01T00:29:35.369Z,0.00
2023-04-01T00:30:35.360Z,0.00
2023-04-01T00:31:35.388Z,0.00
2023-04-01T00:32:35.412Z,0.00
2023-04-01T00:33:35.370Z,0.00
2023-04-01T00:34:35.300Z,0.00
2023-04-01T00:35:35.480Z,0.00
2023-04-01T00:36:35.340Z,0.00
2023-04-01T00:37:35.286Z,0.00
2023-04-01T00:38:35.524Z,0.00
2023-04-01T00:39:35.280Z,0.00
2023-04-01T00:40:35.297Z,0.00
2023-04-01T00:41:35.306Z,0.00
2023-04-01T00:42:35.230Z,0.00
2023-04-01T00:43:35.250Z,0.00
2023-04-01T00:44:35.238Z,0.00
2023-04-01T00:45:35.345Z,0.00
2023-04-01T00:46:35.246Z,0.00
2023-04-01T00:47:35.214Z,0.00
2023-04-01T00:48:35.167Z,0.00
2023-04-01T00:49:35.185Z,0.00
2023-04-01T00:50:35.185Z,0.00
2023-04-01T00:51:35.473Z,0.00
2023-04-01T00:52:35.160Z,0.00
2023-04-01T00:53:35.187Z,0.00
2023-04-01T00:54:35.131Z,0.00
2023-04-01T00:55:35.130Z,0.00
2023-04-01T00:56:35.108Z,0.00
2023-04-01T00:57:35.153Z,0.00
2023-04-01T00:58:35.162Z,0.00
2023-04-01T00:59:35.101Z,0.00
2023-04-01T01:00:35.091Z,0.00
2023-04-01T01:01:35.073Z,0.00
2023-04-01T01:02:35.149Z,0.00
2023-04-01T01:03:35.057Z,0.00
2023-04-01T01:04:35.029Z,0.00
2023-04-01T01:05:48.040Z,0.00
2023-04-01T01:06:35.002Z,0.00
2023-04-01T01:07:35.008Z,0.00
2023-04-01T01:08:34.969Z,0.00
2023-04-01T01:09:34.985Z,0.00
2023-04-01T01:10:34.948Z,0.00
2023-04-01T01:11:42.628Z,0.00
2023-04-01T01:12:34.949Z,0.00
2023-04-01T01:13:34.941Z,0.00
2023-04-01T01:14:34.904Z,0.00
2023-04-01T01:15:34.918Z,0.00
2023-04-01T01:16:34.929Z,0.00
2023-04-01T01:17:34.946Z,0.00
2023-04-01T01:18:34.895Z,0.00
2023-04-01T01:19:34.872Z,0.00
2023-04-01T01:20:34.885Z,0.00
2023-04-01T01:21:34.855Z,0.00
2023-04-01T01:22:35.069Z,0.00
2023-04-01T01:23:34.837Z,0.00
2023-04-01T01:24:34.834Z,0.00
2023-04-01T01:25:35.151Z,0.00
2023-04-01T01:26:34.835Z,0.00
2023-04-01T01:27:34.806Z,0.00
2023-04-01T01:28:34.807Z,0.00
2023-04-01T01:29:34.806Z,0.00
2023-04-01T01:30:34.808Z,0.00
2023-04-01T01:31:34.761Z,0.00
2023-04-01T01:32:34.740Z,0.00
2023-04-01T01:33:34.741Z,0.00
2023-04-01T01:34:34.745Z,0.00
2023-04-01T01:35:35.044Z,0.00
2023-04-01T01:36:34.687Z,0.00
2023-04-01T01:37:34.709Z,0.00
2023-04-01T01:38:34.675Z,0.00
2023-04-01T01:39:34.681Z,0.00
2023-04-01T01:40:34.685Z,0.00
2023-04-01T01:41:34.663Z,0.00
2023-04-01T01:42:34.689Z,0.00
2023-04-01T01:43:34.632Z,0.00
2023-04-01T01:44:35.598Z,0.00
2023-04-01T01:45:34.640Z,0.00
2023-04-01T01:46:34.606Z,0.00
2023-04-01T01:47:34.657Z,0.00
2023-04-01T01:48:34.578Z,0.00
2023-04-01T01:49:34.569Z,0.00
2023-04-01T01:50:34.546Z,0.00
2023-04-01T01:51:34.602Z,0.00
2023-04-01T01:52:34.666Z,0.00
2023-04-01T01:53:34.526Z,0.00
2023-04-01T01:54:34.544Z,0.00
2023-04-01T01:55:34.693Z,0.00
2023-04-01T01:56:34.492Z,0.00
2023-04-01T01:57:34.561Z,0.00
2023-04-01T01:58:35.176Z,0.00
2023-04-01T01:59:34.465Z,0.00
2023-04-01T02:00:34.497Z,0.00
2023-04-01T02:01:34.488Z,0.00
2023-04-01T02:02:34.502Z,0.00
2023-04-01T02:03:34.421Z,0.00
2023-04-01T02:04:34.420Z,0.00
2023-04-01T02:05:34.744Z,0.00
2023-04-01T02:06:34.396Z,0.00
2023-04-01T02:07:34.427Z,0.00
2023-04-01T02:08:34.353Z,0.00
2023-04-01T02:09:34.356Z,0.00
2023-04-01T02:10:34.341Z,0.00
2023-04-01T02:11:34.381Z,0.00
2023-04-01T02:12:34.327Z,0.00
2023-04-01T02:13:34.328Z,0.00
2023-04-01T02:14:34.306Z,0.00
2023-04-01T02:15:34.607Z,0.00
2023-04-01T02:16:34.320Z,0.00
2023-04-01T02:17:34.380Z,0.00
2023-04-01T02:18:34.298Z,0.00
2023-04-01T02:19:34.355Z,0.00
2023-04-01T02:20:34.233Z,0.00
2023-04-01T02:21:34.303Z,0.00
2023-04-01T02:22:34.246Z,0.00
2023-04-01T02:23:35.068Z,0.00
2023-04-01T02:24:34.228Z,0.00
2023-04-01T02:25:34.436Z,0.00
2023-04-01T02:26:34.180Z,0.00
2023-04-01T02:27:34.234Z,0.00
2023-04-01T02:28:34.209Z,0.00
2023-04-01T02:29:34.162Z,0.00
2023-04-01T02:30:34.153Z,0.00
2023-04-01T02:31:34.172Z,0.00
2023-04-01T02:32:34.183Z,0.00
2023-04-01T02:33:34.223Z,0.00
2023-04-01T02:34:34.165Z,0.00
2023-04-01T02:35:34.342Z,0.00
2023-04-01T02:36:34.132Z,0.00
2023-04-01T02:37:36.306Z,0.00
2023-04-01T02:38:34.076Z,0.00
2023-04-01T02:39:34.090Z,0.00
2023-04-01T02:40:34.036Z,0.00
2023-04-01T02:41:34.031Z,0.00
2023-04-01T02:42:34.039Z,0.00
2023-04-01T02:43:34.135Z,0.00
2023-04-01T02:44:34.056Z,0.00
2023-04-01T02:45:34.315Z,0.00
2023-04-01T02:46:34.075Z,0.00
2023-04-01T02:47:34.053Z,0.00
2023-04-01T02:48:34.048Z,0.00
2023-04-01T02:49:33.950Z,0.00
2023-04-01T02:50:33.933Z,0.00
2023-04-01T02:51:33.964Z,0.00
2023-04-01T02:52:33.929Z,0.00
2023-04-01T02:53:33.956Z,0.00
2023-04-01T02:54:33.926Z,0.00
2023-04-01T02:55:34.365Z,0.00
2023-04-01T02:56:33.892Z,0.00
2023-04-01T02:57:34.012Z,0.00
2023-04-01T02:58:33.944Z,0.00
2023-04-01T02:59:33.865Z,0.00
2023-04-01T03:00:33.861Z,0.00
2023-04-01T03:01:33.903Z,0.00
2023-04-01T03:02:33.875Z,0.00
2023-04-01T03:03:33.905Z,0.00
2023-04-01T03:04:33.834Z,0.00
2023-04-01T03:05:34.033Z,0.00
2023-04-01T03:06:33.793Z,0.00
2023-04-01T03:07:33.798Z,0.00
2023-04-01T03:08:33.833Z,0.00
2023-04-01T03:09:34.027Z,0.00
2023-04-01T03:10:33.769Z,0.00
2023-04-01T03:11:34.048Z,0.00
2023-04-01T03:12:33.798Z,0.00
2023-04-01T03:13:33.747Z,0.00
2023-04-01T03:14:33.808Z,0.00
2023-04-01T03:15:34.069Z,0.00
2023-04-01T03:16:34.022Z,0.00
2023-04-01T03:17:33.781Z,0.00
2023-04-01T03:18:33.669Z,0.00
2023-04-01T03:19:33.734Z,0.00
2023-04-01T03:20:33.665Z,0.00
2023-04-01T03:21:33.642Z,0.00
2023-04-01T03:22:33.653Z,0.00
2023-04-01T03:23:33.627Z,0.00
2023-04-01T03:24:33.655Z,0.00
2023-04-01T03:25:33.847Z,0.00
2023-04-01T03:26:33.621Z,0.00
2023-04-01T03:27:33.572Z,0.00
2023-04-01T03:28:33.584Z,0.00
2023-04-01T03:29:33.591Z,0.00
2023-04-01T03:30:33.661Z,0.00
2023-04-01T03:31:33.697Z,0.00
2023-04-01T03:32:33.599Z,0.00
2023-04-01T03:33:33.558Z,0.00
2023-04-01T03:34:33.546Z,0.00
2023-04-01T03:35:33.767Z,0.00
2023-04-01T03:36:33.555Z,0.00
2023-04-01T03:37:33.492Z,0.00
2023-04-01T03:38:33.475Z,0.00
2023-04-01T03:39:33.458Z,0.00
2023-04-01T03:40:33.461Z,0.00
2023-04-01T03:41:33.470Z,0.00
2023-04-01T03:42:33.576Z,0.00
2023-04-01T03:43:34.001Z,0.00
2023-04-01T03:44:33.427Z,0.00
2023-04-01T03:45:33.771Z,0.00
2023-04-01T03:46:33.515Z,0.00
2023-04-01T03:47:33.421Z,0.00
2023-04-01T03:48:33.359Z,0.00
2023-04-01T03:49:33.353Z,0.00
2023-04-01T03:50:33.354Z,0.00
2023-04-01T03:51:33.481Z,0.00
2023-04-01T03:52:33.347Z,0.00
2023-04-01T03:53:34.068Z,0.00
2023-04-01T03:54:33.319Z,0.00
2023-04-01T03:55:33.623Z,0.00
2023-04-01T03:56:33.312Z,0.00
2023-04-01T03:57:33.360Z,0.00
2023-04-01T03:58:33.343Z,0.00
2023-04-01T03:59:33.399Z,0.00
2023-04-01T04:00:33.247Z,0.00
2023-04-01T04:01:33.258Z,0.00
2023-04-01T04:02:33.360Z,0.00
2023-04-01T04:03:33.405Z,0.00
2023-04-01T04:04:33.330Z,0.00
2023-04-01T04:05:33.369Z,0.00
2023-04-01T04:06:33.188Z,0.00
2023-04-01T04:07:33.190Z,0.00
2023-04-01T04:08:33.232Z,0.00
2023-04-01T04:09:33.183Z,0.00
2023-04-01T04:10:33.238Z,0.00
2023-04-01T04:11:33.171Z,0.00
2023-04-01T04:12:33.149Z,0.00
2023-04-01T04:13:33.145Z,0.00
2023-04-01T04:14:33.152Z,0.00
2023-04-01T04:15:33.287Z,0.00
2023-04-01T04:16:33.127Z,0.00
2023-04-01T04:17:33.120Z,0.00
2023-04-01T04:18:33.100Z,0.00
2023-04-01T04:19:33.151Z,0.00
2023-04-01T04:20:33.060Z,0.00
2023-04-01T04:21:33.090Z,0.00
2023-04-01T04:22:33.038Z,0.00
2023-04-01T04:23:33.023Z,0.00
2023-04-01T04:24:33.034Z,0.00
2023-04-01T04:25:33.236Z,0.00
2023-04-01T04:26:32.996Z,0.00
2023-04-01T04:27:32.972Z,0.00
2023-04-01T04:28:32.964Z,0.00
2023-04-01T04:29:32.964Z,0.00
2023-04-01T04:30:33.018Z,0.00
2023-04-01T04:31:32.971Z,0.00
2023-04-01T04:32:32.999Z,0.00
2023-04-01T04:33:32.938Z,0.00
2023-04-01T04:34:32.980Z,0.00
2023-04-01T04:35:33.160Z,0.00
2023-04-01T04:36:32.886Z,0.00
2023-04-01T04:37:32.889Z,0.00
2023-04-01T04:38:32.900Z,0.00
2023-04-01T04:39:32.890Z,0.00
2023-04-01T04:40:32.828Z,0.00
2023-04-01T04:41:34.807Z,0.00
2023-04-01T04:42:32.795Z,0.00
2023-04-01T04:43:32.767Z,0.00
2023-04-01T04:44:32.846Z,0.00
2023-04-01T04:45:32.951Z,0.00
2023-04-01T04:46:32.912Z,0.00
2023-04-01T04:47:32.952Z,0.00
2023-04-01T04:48:32.980Z,0.00
2023-04-01T04:49:32.746Z,0.00
2023-04-01T04:50:32.841Z,0.00
2023-04-01T04:51:32.749Z,0.00
2023-04-01T04:52:32.980Z,0.00
2023-04-01T04:53:32.674Z,0.00
2023-04-01T04:54:32.742Z,0.00
2023-04-01T04:55:32.942Z,0.00
2023-04-01T04:56:32.666Z,0.00
2023-04-01T04:57:32.738Z,0.00
2023-04-01T04:58:32.651Z,0.00
2023-04-01T04:59:32.630Z,0.00
2023-04-01T05:00:32.675Z,0.00
2023-04-01T05:01:32.683Z,0.00
2023-04-01T05:02:32.714Z,0.00
2023-04-01T05:03:33.052Z,0.00
2023-04-01T05:04:32.653Z,0.00
2023-04-01T05:05:32.681Z,0.00
2023-04-01T05:06:32.591Z,0.00
2023-04-01T05:07:32.541Z,0.00
2023-04-01T05:08:32.526Z,0.00
2023-04-01T05:09:33.227Z,0.00
2023-04-01T05:10:32.534Z,0.00
2023-04-01T05:11:32.496Z,0.00
2023-04-01T05:12:32.540Z,0.00
2023-04-01T05:13:32.476Z,0.00
2023-04-01T05:14:32.492Z,0.00
2023-04-01T05:15:32.654Z,0.00
2023-04-01T05:16:32.597Z,0.00
2023-04-01T05:17:32.711Z,0.00
2023-04-01T05:18:32.482Z,0.00
2023-04-01T05:19:32.415Z,0.00
2023-04-01T05:20:32.503Z,0.00
2023-04-01T05:21:32.385Z,0.00
2023-04-01T05:22:32.380Z,0.00
2023-04-01T05:23:32.677Z,0.00
2023-04-01T05:24:32.409Z,0.00
2023-04-01T05:25:32.664Z,0.00
2023-04-01T05:26:32.328Z,0.00
2023-04-01T05:27:32.374Z,0.00
2023-04-01T05:28:32.339Z,0.00
2023-04-01T05:30:32.329Z,0.00
2023-04-01T05:31:32.379Z,0.00
2023-04-01T05:32:32.310Z,0.00
2023-04-01T05:33:32.279Z,0.00
2023-04-01T05:34:32.252Z,0.00
2023-04-01T05:35:32.502Z,0.00
2023-04-01T05:36:32.313Z,0.00
2023-04-01T05:37:32.266Z,0.00
2023-04-01T05:38:32.215Z,0.00
2023-04-01T05:39:32.276Z,0.00
2023-04-01T05:40:32.458Z,0.00
2023-04-01T05:41:32.258Z,0.00
2023-04-01T05:42:32.188Z,0.00
2023-04-01T05:43:32.190Z,0.00
2023-04-01T05:44:32.167Z,0.00
2023-04-01T05:45:32.420Z,5.62
2023-04-01T05:46:32.186Z,5.62
2023-04-01T05:47:32.344Z,5.62
2023-04-01T05:48:32.179Z,5.62
2023-04-01T05:49:32.216Z,5.62
2023-04-01T05:50:32.122Z,5.62
2023-04-01T05:51:32.075Z,5.62
2023-04-01T05:52:32.068Z,5.62
2023-04-01T05:53:32.146Z,5.62
2023-04-01T05:54:32.059Z,5.62
2023-04-01T05:55:32.317Z,5.62
2023-04-01T05:56:32.064Z,5.62
2023-04-01T05:57:32.084Z,5.62
2023-04-01T05:58:32.024Z,5.62
2023-04-01T05:59:32.086Z,5.62
2023-04-01T06:00:32.037Z,5.62
2023-04-01T06:01:31.996Z,5.62
2023-04-01T06:02:32.060Z,5.62
2023-04-01T06:03:32.045Z,5.62
2023-04-01T06:04:32.074Z,5.62
2023-04-01T06:05:32.824Z,11.25
2023-04-01T06:06:31.948Z,11.25
2023-04-01T06:07:32.036Z,5.62
2023-04-01T06:08:31.965Z,5.62
2023-04-01T06:09:32.542Z,5.62
2023-04-01T06:10:31.894Z,5.62
2023-04-01T06:11:31.913Z,5.62
2023-04-01T06:12:31.907Z,11.25
2023-04-01T06:13:31.942Z,11.25
2023-04-01T06:14:31.892Z,11.25
2023-04-01T06:15:32.226Z,11.25
2023-04-01T06:16:31.860Z,11.25
2023-04-01T06:17:31.911Z,11.25
2023-04-01T06:18:31.857Z,5.62
2023-04-01T06:19:31.816Z,5.62
2023-04-01T06:20:31.852Z,5.62
2023-04-01T06:21:31.795Z,11.25
2023-04-01T06:22:31.856Z,11.25
2023-04-01T06:23:31.820Z,11.25
2023-04-01T06:24:31.770Z,5.62
2023-04-01T06:25:32.027Z,5.62
2023-04-01T06:26:31.761Z,5.62
2023-04-01T06:27:31.732Z,5.62
2023-04-01T06:28:31.799Z,5.62
2023-04-01T06:29:31.729Z,5.62
2023-04-01T06:30:31.703Z,5.62
2023-04-01T06:31:31.754Z,5.62
2023-04-01T06:32:31.738Z,5.62
2023-04-01T06:33:31.688Z,5.62
2023-04-01T06:34:31.647Z,5.62
2023-04-01T06:35:31.892Z,11.25
2023-04-01T06:36:31.798Z,11.25
2023-04-01T06:37:31.708Z,5.62
2023-04-01T06:38:31.674Z,5.62
2023-04-01T06:39:31.609Z,5.62
2023-04-01T06:40:31.620Z,5.62
2023-04-01T06:41:31.585Z,11.25
2023-04-01T06:42:31.645Z,11.25
2023-04-01T06:43:31.582Z,11.25
2023-04-01T06:44:31.576Z,11.25
2023-04-01T06:45:32.002Z,11.25
2023-04-01T06:46:32.216Z,11.25
2023-04-01T06:47:31.627Z,11.25
2023-04-01T06:48:31.524Z,11.25
2023-04-01T06:49:31.623Z,16.88
2023-04-01T06:50:31.523Z,16.88
2023-04-01T06:51:31.520Z,16.88
2023-04-01T06:52:31.531Z,16.88
2023-04-01T06:53:31.464Z,16.88
2023-04-01T06:54:31.555Z,16.88
2023-04-01T06:55:31.645Z,16.88
2023-04-01T06:56:31.430Z,16.88
2023-04-01T06:57:32.249Z,16.88
2023-04-01T06:58:31.442Z,16.88
2023-04-01T06:59:31.411Z,22.50
2023-04-01T07:00:31.648Z,22.50
2023-04-01T07:01:31.690Z,22.50
2023-04-01T07:02:31.389Z,22.50
2023-04-01T07:03:31.402Z,22.50
2023-04-01T07:04:31.459Z,22.50
2023-04-01T07:05:31.758Z,22.50
2023-04-01T07:06:31.405Z,22.50
2023-04-01T07:07:31.334Z,28.12
2023-04-01T07:08:31.405Z,28.12
2023-04-01T07:09:31.332Z,28.12
2023-04-01T07:10:31.365Z,28.12
2023-04-01T07:11:31.290Z,28.12
2023-04-01T07:12:31.278Z,28.12
2023-04-01T07:13:31.280Z,28.12
2023-04-01T07:14:31.326Z,28.12
2023-04-01T07:15:31.550Z,22.50
2023-04-01T07:16:31.357Z,22.50
2023-04-01T07:17:31.328Z,22.50
2023-04-01T07:18:31.220Z,22.50
2023-04-01T07:19:31.231Z,22.50
2023-04-01T07:20:31.178Z,22.50
2023-04-01T07:21:32.129Z,22.50
2023-04-01T07:22:31.233Z,22.50
2023-04-01T07:23:31.234Z,22.50
2023-04-01T07:24:31.164Z,22.50
2023-04-01T07:25:31.392Z,22.50
2023-04-01T07:26:31.191Z,22.50
2023-04-01T07:27:31.171Z,22.50
2023-04-01T07:28:31.215Z,22.50
2023-04-01T07:29:31.094Z,22.50
2023-04-01T07:30:31.338Z,28.12
2023-04-01T07:31:31.254Z,28.12
2023-04-01T07:32:31.102Z,33.75
2023-04-01T07:33:31.067Z,33.75
2023-04-01T07:34:31.109Z,33.75
2023-04-01T07:35:31.403Z,33.75
2023-04-01T07:36:31.079Z,33.75
2023-04-01T07:37:31.054Z,33.75
2023-04-01T07:38:31.225Z,33.75
2023-04-01T07:39:31.068Z,39.38
2023-04-01T07:40:31.012Z,39.38
2023-04-01T07:41:31.055Z,39.38
2023-04-01T07:42:31.021Z,45.00
2023-04-01T07:43:30.992Z,50.62
2023-04-01T07:44:31.184Z,50.62
2023-04-01T07:45:31.005Z,56.25
2023-04-01T07:46:31.077Z,56.25
2023-04-01T07:47:30.960Z,56.25
2023-04-01T07:48:30.953Z,56.25
2023-04-01T07:49:30.917Z,50.62
2023-04-01T07:50:30.932Z,45.00
2023-04-01T07:51:30.905Z,39.38
2023-04-01T07:52:30.888Z,45.00
2023-04-01T07:53:30.911Z,39.38
2023-04-01T07:54:30.871Z,33.75
2023-04-01T07:55:30.881Z,33.75
2023-04-01T07:56:30.900Z,33.75
2023-04-01T07:57:31.125Z,33.75
2023-04-01T07:58:30.917Z,33.75
2023-04-01T07:59:30.836Z,28.12
2023-04-01T08:00:30.838Z,28.12
2023-04-01T08:01:30.795Z,22.50
2023-04-01T08:02:30.847Z,22.50
2023-04-01T08:03:30.944Z,22.50
2023-04-01T08:04:30.811Z,22.50
2023-04-01T08:05:30.931Z,28.12
2023-04-01T08:06:30.775Z,33.75
2023-04-01T08:07:30.740Z,33.75
2023-04-01T08:08:30.708Z,33.75
2023-04-01T08:09:30.753Z,33.75
2023-04-01T08:10:30.708Z,33.75
2023-04-01T08:11:30.709Z,33.75
2023-04-01T08:12:30.929Z,33.75
2023-04-01T08:13:30.669Z,33.75
2023-04-01T08:14:30.680Z,33.75
2023-04-01T08:15:30.691Z,33.75
2023-04-01T08:16:30.726Z,33.75
2023-04-01T08:17:30.655Z,28.12
2023-04-01T08:18:30.598Z,28.12
2023-04-01T08:19:31.125Z,28.12
2023-04-01T08:20:30.622Z,28.12
2023-04-01T08:21:30.603Z,28.12
2023-04-01T08:22:30.597Z,28.12
2023-04-01T08:23:30.582Z,28.12
2023-04-01T08:24:40.602Z,28.12
2023-04-01T08:25:30.665Z,28.12
2023-04-01T08:26:30.566Z,28.12
2023-04-01T08:27:30.705Z,33.75
2023-04-01T08:28:31.331Z,33.75
2023-04-01T08:29:30.568Z,33.75
2023-04-01T08:30:30.508Z,33.75
2023-04-01T08:31:30.761Z,33.75
2023-04-01T08:32:30.545Z,33.75
2023-04-01T08:33:30.587Z,33.75
2023-04-01T08:34:30.500Z,39.38
2023-04-01T08:35:32.363Z,39.38
2023-04-01T08:36:30.498Z,39.38
2023-04-01T08:37:30.483Z,33.75
2023-04-01T08:38:30.481Z,33.75
2023-04-01T08:39:31.134Z,33.75
2023-04-01T08:40:30.404Z,33.75
2023-04-01T08:41:30.399Z,33.75
2023-04-01T08:42:30.391Z,33.75
2023-04-01T08:43:30.689Z,39.38
2023-04-01T08:44:30.389Z,39.38
2023-04-01T08:45:30.421Z,39.38
2023-04-01T08:46:30.358Z,39.38
2023-04-01T08:47:30.394Z,39.38
2023-04-01T08:48:30.371Z,39.38
2023-04-01T08:49:30.440Z,39.38
2023-04-01T08:50:30.279Z,39.38
2023-04-01T08:51:30.521Z,45.00
2023-04-01T08:52:30.305Z,45.00
2023-04-01T08:53:30.277Z,45.00
2023-04-01T08:54:30.549Z,45.00
2023-04-01T08:55:30.298Z,39.38
2023-04-01T08:56:30.313Z,39.38
2023-04-01T08:57:30.434Z,33.75
2023-04-01T08:58:30.317Z,39.38
2023-04-01T08:59:30.218Z,39.38
2023-04-01T09:00:30.231Z,39.38
2023-04-01T09:01:30.179Z,45.00
2023-04-01T09:02:30.304Z,45.00
2023-04-01T09:03:30.707Z,45.00
2023-04-01T09:04:30.194Z,45.00
2023-04-01T09:05:30.436Z,45.00
2023-04-01T09:06:30.148Z,39.38
2023-04-01T09:07:30.158Z,39.38
2023-04-01T09:08:30.233Z,39.38
2023-04-01T09:09:30.175Z,39.38
2023-04-01T09:10:30.157Z,39.38
2023-04-01T09:11:30.143Z,39.38
2023-04-01T09:12:30.068Z,39.38
2023-04-01T09:13:30.079Z,33.75
2023-04-01T09:14:30.190Z,39.38
2023-04-01T09:15:30.122Z,39.38
2023-04-01T09:16:30.239Z,39.38
2023-04-01T09:17:30.074Z,39.38
2023-04-01T09:18:30.080Z,39.38
2023-04-01T09:19:30.495Z,39.38
2023-04-01T09:20:29.989Z,39.38
2023-04-01T09:21:30.004Z,45.00
2023-04-01T09:22:29.978Z,45.00
2023-04-01T09:23:29.956Z,45.00
2023-04-01T09:24:29.954Z,45.00
2023-04-01T09:25:29.991Z,45.00
2023-04-01T09:26:29.930Z,45.00
2023-04-01T09:27:29.911Z,45.00
2023-04-01T09:28:29.946Z,45.00
2023-04-01T09:29:29.898Z,45.00
2023-04-01T09:30:29.898Z,45.00
2023-04-01T09:31:29.968Z,50.62
2023-04-01T09:32:29.891Z,50.62
2023-04-01T09:33:29.859Z,50.62
2023-04-01T09:34:29.918Z,50.62
2023-04-01T09:35:29.945Z,50.62
2023-04-01T09:36:29.872Z,50.62
2023-04-01T09:37:29.824Z,50.62
2023-04-01T09:38:29.822Z,50.62
2023-04-01T09:39:29.819Z,56.25
2023-04-01T09:40:29.809Z,56.25
2023-04-01T09:41:29.794Z,56.25
2023-04-01T09:42:29.896Z,61.88
2023-04-01T09:43:29.792Z,61.88
2023-04-01T09:44:30.034Z,67.50
2023-04-01T09:45:29.770Z,67.50
2023-04-01T09:46:29.779Z,67.50
2023-04-01T09:47:29.815Z,67.50
2023-04-01T09:48:29.742Z,61.88
2023-04-01T09:49:29.722Z,56.25
2023-04-01T09:50:29.686Z,56.25
2023-04-01T09:51:29.704Z,56.25
2023-04-01T09:52:29.687Z,61.88
2023-04-01T09:53:29.686Z,61.88
2023-04-01T09:54:29.781Z,61.88
2023-04-01T09:55:29.634Z,56.25
2023-04-01T09:56:29.653Z,50.62
2023-04-01T09:57:29.794Z,50.62
2023-04-01T09:58:29.654Z,45.00
2023-04-01T09:59:29.636Z,45.00
2023-04-01T10:00:29.599Z,39.38
2023-04-01T10:01:30.538Z,39.38
2023-04-01T10:02:29.609Z,39.38
2023-04-01T10:03:29.960Z,39.38
2023-04-01T10:04:30.279Z,39.38
2023-04-01T10:05:29.565Z,39.38
2023-04-01T10:06:29.511Z,39.38
2023-04-01T10:07:30.544Z,39.38
2023-04-01T10:08:29.516Z,45.00
2023-04-01T10:09:29.526Z,45.00
2023-04-01T10:10:29.476Z,50.62
2023-04-01T10:11:29.495Z,45.00
2023-04-01T10:12:29.506Z,45.00
2023-04-01T10:13:29.458Z,39.38
2023-04-01T10:14:29.500Z,33.75
2023-04-01T10:15:29.430Z,33.75
2023-04-01T10:16:29.478Z,33.75
2023-04-01T10:17:29.454Z,33.75
2023-04-01T10:18:29.450Z,33.75
2023-04-01T10:19:29.396Z,28.12
2023-04-01T10:20:29.447Z,28.12
2023-04-01T10:21:29.402Z,28.12
2023-04-01T10:22:29.354Z,28.12
2023-04-01T10:23:29.360Z,33.75
2023-04-01T10:24:29.379Z,33.75
2023-04-01T10:25:29.374Z,33.75
2023-04-01T10:26:29.409Z,39.38
2023-04-01T10:27:29.314Z,39.38
2023-04-01T10:28:29.293Z,45.00
2023-04-01T10:29:29.291Z,45.00
2023-04-01T10:30:29.302Z,45.00
2023-04-01T10:31:29.384Z,50.62
2023-04-01T10:32:29.390Z,50.62
2023-04-01T10:33:29.320Z,56.25
2023-04-01T10:34:29.291Z,56.25
2023-04-01T10:35:29.281Z,56.25
2023-04-01T10:36:29.291Z,50.62
2023-04-01T10:37:29.770Z,45.00
2023-04-01T10:38:29.317Z,45.00
2023-04-01T10:39:29.199Z,50.62
2023-04-01T10:40:29.173Z,50.62
2023-04-01T10:41:29.194Z,56.25
2023-04-01T10:42:29.193Z,56.25
2023-04-01T10:43:29.235Z,50.62
2023-04-01T10:44:29.184Z,50.62
2023-04-01T10:45:29.172Z,50.62
2023-04-01T10:46:29.174Z,50.62
2023-04-01T10:47:29.152Z,50.62
2023-04-01T10:48:29.116Z,61.88
2023-04-01T10:49:29.134Z,67.50
2023-04-01T10:50:29.097Z,67.50
2023-04-01T10:51:29.071Z,73.12
2023-04-01T10:52:29.112Z,73.12
2023-04-01T10:53:29.120Z,73.12
2023-04-01T10:54:29.109Z,78.75
2023-04-01T10:55:29.028Z,78.75
2023-04-01T10:56:29.014Z,78.75
2023-04-01T10:57:29.052Z,78.75
2023-04-01T10:58:29.032Z,78.75
2023-04-01T10:59:28.986Z,73.12
2023-04-01T11:00:29.062Z,67.50
2023-04-01T11:01:29.039Z,73.12
2023-04-01T11:02:29.111Z,73.12
2023-04-01T11:03:29.043Z,73.12
2023-04-01T11:04:28.943Z,78.75
2023-04-01T11:05:29.012Z,84.38
2023-04-01T11:06:28.939Z,84.38
2023-04-01T11:07:28.973Z,84.38
2023-04-01T11:08:28.885Z,78.75
2023-04-01T11:09:29.062Z,78.75
2023-04-01T11:10:28.916Z,73.12
2023-04-01T11:11:29.167Z,73.12
2023-04-01T11:12:28.889Z,73.12
2023-04-01T11:13:28.872Z,73.12
2023-04-01T11:14:28.881Z,67.50
2023-04-01T11:15:28.818Z,61.88
2023-04-01T11:16:28.856Z,56.25
2023-04-01T11:17:28.867Z,50.62
2023-04-01T11:18:28.867Z,50.62
2023-04-01T11:19:28.804Z,50.62
2023-04-01T11:20:28.774Z,50.62
2023-04-01T11:21:28.775Z,50.62
2023-04-01T11:22:29.753Z,56.25
2023-04-01T11:23:28.760Z,56.25
2023-04-01T11:24:28.754Z,56.25
2023-04-01T11:25:28.789Z,56.25
2023-04-01T11:26:28.715Z,61.88
2023-04-01T11:27:28.722Z,56.25
2023-04-01T11:28:28.739Z,56.25
2023-04-01T11:29:28.674Z,56.25
2023-04-01T11:30:28.695Z,50.62
2023-04-01T11:31:28.713Z,45.00
2023-04-01T11:32:28.970Z,45.00
2023-04-01T11:33:28.666Z,50.62
2023-04-01T11:34:28.645Z,50.62
2023-04-01T11:35:28.617Z,61.88
2023-04-01T11:36:28.671Z,67.50
2023-04-01T11:37:28.615Z,67.50
2023-04-01T11:38:28.595Z,61.88
2023-04-01T11:39:28.609Z,61.88
2023-04-01T11:40:28.670Z,56.25
2023-04-01T11:41:28.575Z,56.25
2023-04-01T11:42:28.646Z,56.25
2023-04-01T11:43:33.400Z,61.88
2023-04-01T11:44:28.610Z,61.88
2023-04-01T11:45:28.537Z,61.88
2023-04-01T11:46:28.561Z,61.88
2023-04-01T11:47:28.566Z,61.88
2023-04-01T11:48:28.500Z,61.88
2023-04-01T11:49:28.535Z,56.25
2023-04-01T11:50:28.603Z,56.25
2023-04-01T11:51:28.467Z,50.62
2023-04-01T11:52:28.546Z,50.62
2023-04-01T11:53:28.532Z,50.62
2023-04-01T11:54:28.452Z,45.00
2023-04-01T11:55:28.492Z,39.38
2023-04-01T11:56:28.400Z,33.75
2023-04-01T11:57:28.449Z,33.75
2023-04-01T11:58:28.376Z,33.75
2023-04-01T11:59:28.423Z,33.75
2023-04-01T12:00:28.396Z,33.75
2023-04-01T12:01:28.380Z,28.12
2023-04-01T12:02:28.477Z,28.12
2023-04-01T12:03:28.536Z,28.12
2023-04-01T12:04:28.405Z,28.12
2023-04-01T12:05:28.336Z,28.12
2023-04-01T12:06:28.334Z,28.12
2023-04-01T12:07:28.322Z,28.12
2023-04-01T12:08:28.299Z,33.75
2023-04-01T12:09:28.322Z,33.75
2023-04-01T12:10:28.304Z,45.00
2023-04-01T12:11:28.289Z,56.25
2023-04-01T12:12:29.160Z,67.50
2023-04-01T12:13:28.502Z,73.12
2023-04-01T12:14:28.230Z,73.12
2023-04-01T12:15:28.237Z,78.75
2023-04-01T12:16:28.251Z,78.75
2023-04-01T12:17:28.246Z,73.12
2023-04-01T12:18:28.216Z,73.12
2023-04-01T12:19:28.240Z,67.50
2023-04-01T12:20:28.194Z,50.62
2023-04-01T12:21:28.175Z,33.75
2023-04-01T12:22:28.183Z,28.12
2023-04-01T12:23:28.178Z,39.38
2023-04-01T12:24:28.130Z,56.25
2023-04-01T12:25:28.173Z,67.50
2023-04-01T12:26:28.232Z,73.12
2023-04-01T12:27:28.156Z,73.12
2023-04-01T12:28:28.176Z,84.38
2023-04-01T12:29:28.112Z,78.75
2023-04-01T12:30:28.077Z,78.75
2023-04-01T12:31:28.056Z,78.75
2023-04-01T12:32:28.079Z,73.12
2023-04-01T12:33:29.025Z,73.12
2023-04-01T12:34:28.052Z,67.50
2023-04-01T12:35:28.164Z,67.50
2023-04-01T12:36:28.020Z,61.88
2023-04-01T12:37:28.028Z,50.62
2023-04-01T12:38:28.055Z,39.38
2023-04-01T12:39:28.010Z,33.75
2023-04-01T12:40:28.043Z,28.12
2023-04-01T12:41:27.993Z,22.50
2023-04-01T12:42:27.979Z,22.50
2023-04-01T12:43:27.999Z,28.12
2023-04-01T12:44:28.025Z,33.75
2023-04-01T12:45:27.931Z,39.38
2023-04-01T12:46:27.994Z,39.38
2023-04-01T12:47:27.924Z,39.38
2023-04-01T12:48:27.895Z,39.38
2023-04-01T12:49:27.858Z,39.38
2023-04-01T12:50:27.865Z,33.75
2023-04-01T12:51:27.900Z,33.75
2023-04-01T12:52:28.772Z,33.75
2023-04-01T12:53:28.530Z,33.75
2023-04-01T12:54:27.881Z,33.75
2023-04-01T12:55:27.815Z,33.75
2023-04-01T12:56:27.835Z,33.75
2023-04-01T12:57:27.929Z,39.38
2023-04-01T12:58:27.775Z,39.38
2023-04-01T12:59:27.777Z,45.00
2023-04-01T13:00:27.773Z,45.00
2023-04-01T13:01:27.848Z,39.38
2023-04-01T13:02:27.813Z,39.38
2023-04-01T13:03:27.742Z,39.38
2023-04-01T13:04:27.737Z,39.38
2023-04-01T13:05:27.725Z,39.38
2023-04-01T13:06:27.809Z,39.38